Buoy 46612

sailwx.info

Track history (hours):
 
Tides and Currents Weather Stations Pressure Air Temp Water Temp Dewpoint Dewpoint Depression Visibility Wind Speed Wind Dir Waves Ship Positions

Drifting buoy 46612

Last reported at 2016-May-06 15:00 UTC. Time now 2016-May-06 18:41 UTC.
Position N 34°06' W 126°44'.

Water temperature 16.3 ° C

Date/timePositionNaut miles runAvg speedWind from/ knotsBaromVisibWave heightAir tempDewpointWater temp
2016-May-06 15:00N 34°06' W 126°44'1 0.3 16.3
2016-May-06 13:00N 34°06' W 126°44'0 0.2 16.2
2016-May-06 12:00N 34°06' W 126°44'2 0.5 16.2
2016-May-06 07:00N 34°07' W 126°41'0 0.0 16.3
2016-May-06 05:00N 34°07' W 126°41'0 0.2 16.3
2016-May-06 03:00N 34°07' W 126°42'1 0.6 16.4
2016-May-06 02:00N 34°06' W 126°42'0 0.0 16.4
2016-May-06 01:00N 34°06' W 126°42'0 0.1 16.4
2016-May-05 22:00N 34°06' W 126°41'2 1.0 16.3
2016-May-05 20:00N 34°07' W 126°39'0 0.0 16.2
2016-May-05 19:00N 34°07' W 126°39'0 0.2 16.2
2016-May-05 17:00N 34°07' W 126°40'0 0.0 16.2
2016-May-05 16:00N 34°07' W 126°40'0 0.5 16.2
2016-May-05 15:00N 34°07' W 126°39'0 0.0 16.3
2016-May-05 14:00N 34°07' W 126°39'0 0.1 16.4
2016-May-05 13:00N 34°07' W 126°39'3 0.3 16.4
2016-May-05 04:00N 34°07' W 126°36'0 0.5 16.4
2016-May-05 03:00N 34°08' W 126°35'0 0.0 16.3
2016-May-05 01:00N 34°08' W 126°35'3 2.8 16.3
2016-May-05 00:00N 34°09' W 126°33'0 0.0 16.3
2016-May-04 22:00N 34°09' W 126°33'1 0.1 16.3
2016-May-04 17:00N 34°09' W 126°33'0 0.0 16.2
2016-May-04 16:00N 34°09' W 126°33'0 0.4 16.2
2016-May-04 15:00N 34°09' W 126°34'0 0.3 16.2
2016-May-04 14:00N 34°09' W 126°34'0 0.0 16.2
2016-May-04 13:00N 34°09' W 126°34'0 0.2 16.2
2016-May-04 11:00N 34°09' W 126°34'0 0.0 16.2
2016-May-04 10:00N 34°09' W 126°34'1 0.3 16.2
2016-May-04 06:00N 34°09' W 126°33'1 0.7 16.3
2016-May-04 05:00N 34°10' W 126°32'0 0.4 16.4
2016-May-04 04:00N 34°10' W 126°32'0 0.0 16.6
2016-May-04 03:00N 34°10' W 126°32'0 0.3 17.0
2016-May-04 02:00N 34°10' W 126°32'0 0.1 17.1
2016-May-04 01:00N 34°10' W 126°32'1 0.6 17.4
2016-May-04 00:00N 34°11' W 126°32'0 0.0 18.0
2016-May-03 23:00N 34°11' W 126°32'0 0.2 17.9
2016-May-03 21:00N 34°11' W 126°32'0 0.1 18.0
2016-May-03 18:00N 34°11' W 126°33'0 0.1 16.5
2016-May-03 17:00N 34°11' W 126°33'0 0.0 16.3
2016-May-03 14:00N 34°11' W 126°33'0 0.0 16.4
2016-May-03 13:00N 34°11' W 126°33'0 0.1 16.4
2016-May-03 10:00N 34°11' W 126°32'1 0.1 16.1
2016-May-03 04:00N 34°11' W 126°31'0 0.0 16.6
2016-May-03 03:00N 34°11' W 126°31'0 0.2 17.1
2016-May-03 02:00N 34°11' W 126°31'0 0.2 17.0
2016-May-03 00:00N 34°11' W 126°31'0 0.3 17.8
2016-May-02 23:00N 34°12' W 126°31'0 0.5 17.8
2016-May-02 22:00N 34°12' W 126°32'0 0.2 18.0
2016-May-02 21:00N 34°12' W 126°32'1 0.3 17.2
2016-May-02 19:00N 34°12' W 126°33'0 0.0 16.3
2016-May-02 18:00N 34°12' W 126°33'0 0.3 16.1
2016-May-02 17:00N 34°12' W 126°33'0 0.1 16.0
2016-May-02 16:00N 34°12' W 126°33'0 0.1 16.0
2016-May-02 14:00N 34°12' W 126°33'0 0.1 15.9
2016-May-02 13:00N 34°12' W 126°33'1 0.2 15.9
2016-May-02 06:00N 34°11' W 126°31'1 0.5 15.9
2016-May-02 05:00N 34°12' W 126°31'0 0.0 15.9
2016-May-02 03:00N 34°12' W 126°31'1 0.6 16.0
2016-May-02 02:00N 34°12' W 126°31'0 0.2 16.0
2016-May-02 01:00N 34°12' W 126°31'0 0.1 16.0
2016-May-01 21:00N 34°13' W 126°31'1 0.1 15.9
2016-May-01 16:00N 34°13' W 126°30'0 0.2 15.8
2016-May-01 14:00N 34°12' W 126°30'1 1.1 15.8
2016-May-01 13:00N 34°13' W 126°29'0 0.0 15.8
2016-May-01 11:00N 34°13' W 126°29'1 0.3 15.8
2016-May-01 07:00N 34°14' W 126°28'0 0.0 15.6
2016-May-01 06:00N 34°14' W 126°28'1 0.3 15.5
2016-May-01 04:00N 34°15' W 126°28'1 0.5 15.5
2016-May-01 03:00N 34°15' W 126°28'0 0.3 15.4
2016-May-01 02:00N 34°15' W 126°28'0 0.0 15.4
2016-May-01 01:00N 34°15' W 126°28'0 0.5 15.4
2016-May-01 00:00N 34°15' W 126°27'0 0.2 15.4
2016-Apr-30 23:00N 34°15' W 126°28'2 2.5 15.4
2016-Apr-30 22:00N 34°17' W 126°25'0 0.0 15.4
2016-Apr-30 19:00N 34°17' W 126°25'0 0.0 15.3
2016-Apr-30 18:00N 34°17' W 126°25'1 0.5 15.3
2016-Apr-30 17:00N 34°17' W 126°25'0 0.0 15.3
2016-Apr-30 16:00N 34°17' W 126°25'1 0.5 15.3
2016-Apr-30 14:00N 34°18' W 126°24'0 0.3 15.3
2016-Apr-30 13:00N 34°18' W 126°24'0 0.0 15.3
2016-Apr-30 12:00N 34°18' W 126°24'2 0.3 15.3
2016-Apr-30 04:00N 34°20' W 126°25'2 0.8 15.2
2016-Apr-30 02:00N 34°21' W 126°23'0 0.2 15.2
2016-Apr-30 01:00N 34°21' W 126°23'1 0.5 15.2
2016-Apr-30 00:00N 34°21' W 126°22'1 0.5 15.1
2016-Apr-29 23:00N 34°21' W 126°22'1 0.4 15.1
2016-Apr-29 19:00N 34°22' W 126°21'0 0.0 15.1
2016-Apr-29 18:00N 34°22' W 126°21'1 0.3 15.1
2016-Apr-29 15:00N 34°23' W 126°21'1 0.8 15.0
2016-Apr-29 14:00N 34°23' W 126°21'1 0.5 15.0
2016-Apr-29 13:00N 34°24' W 126°20'0 0.0 15.0
2016-Apr-29 12:00N 34°24' W 126°20'2 1.7 15.0
2016-Apr-29 11:00N 34°25' W 126°20'0 0.0 15.0
2016-Apr-29 06:00N 34°25' W 126°20'0 0.1 15.1
2016-Apr-29 05:00N 34°26' W 126°20'0 0.4 15.1
2016-Apr-29 04:00N 34°26' W 126°20'0 0.3 15.1
2016-Apr-29 03:00N 34°26' W 126°19'0 0.2 15.2
2016-Apr-29 01:00N 34°26' W 126°19'1 0.6 15.2
2016-Apr-28 23:00N 34°27' W 126°18'0 0.0 15.2
2016-Apr-28 22:00N 34°27' W 126°18'4 0.7 15.2
2016-Apr-28 17:00N 34°30' W 126°17'1 0.4 15.2
2016-Apr-28 15:00N 34°31' W 126°17'0 0.0 15.2
2016-Apr-28 14:00N 34°31' W 126°17'3 0.3 15.2
2016-Apr-28 04:00N 34°33' W 126°15'1 0.6 15.3
2016-Apr-28 02:00N 34°34' W 126°14'2 0.8 15.3
2016-Apr-27 23:00N 34°36' W 126°12'4 0.9 15.3
2016-Apr-27 19:00N 34°40' W 126°12'1 0.5 15.3
2016-Apr-27 16:00N 34°41' W 126°13'1 0.7 15.2
2016-Apr-27 15:00N 34°42' W 126°13'0 0.0 15.2
2016-Apr-27 14:00N 34°42' W 126°13'5 0.6 15.1
2016-Apr-27 06:00N 34°46' W 126°11'0 0.0 15.1
2016-Apr-27 05:00N 34°46' W 126°11'1 0.8 15.1
2016-Apr-27 04:00N 34°47' W 126°10'1 1.4 15.1
2016-Apr-27 03:00N 34°48' W 126°11'4 2.0 15.1
2016-Apr-27 01:00N 34°52' W 126°11'0 0.0 15.1
2016-Apr-27 00:00N 34°52' W 126°11'0 0.0 15.1
2016-Apr-26 23:00N 34°52' W 126°11'0 0.2 15.1
2016-Apr-26 22:00N 34°52' W 126°11'4 0.8 15.1
2016-Apr-26 17:00N 34°56' W 126°11'1 0.4 15.2
2016-Apr-26 15:00N 34°57' W 126°11'   15.4
Track history (hours):
 
Tides and Currents Weather Stations Pressure Air Temp Water Temp Dewpoint Dewpoint Depression Visibility Wind Speed Wind Dir Waves Ship Positions

Drifting buoy 46612

Last reported at 2016-May-06 15:00 UTC. Time now 2016-May-06 18:41 UTC.
Position N 34°06' W 126°44'.

Water temperature 16.3 ° C

Date/timePositionNaut miles runAvg speedWind from/ knotsBaromVisibWave heightAir tempDewpointWater temp
2016-May-06 15:00N 34°06' W 126°44'1 0.3 16.3
2016-May-06 13:00N 34°06' W 126°44'0 0.2 16.2
2016-May-06 12:00N 34°06' W 126°44'2 0.5 16.2
2016-May-06 07:00N 34°07' W 126°41'0 0.0 16.3
2016-May-06 05:00N 34°07' W 126°41'0 0.2 16.3
2016-May-06 03:00N 34°07' W 126°42'1 0.6 16.4
2016-May-06 02:00N 34°06' W 126°42'0 0.0 16.4
2016-May-06 01:00N 34°06' W 126°42'0 0.1 16.4
2016-May-05 22:00N 34°06' W 126°41'2 1.0 16.3
2016-May-05 20:00N 34°07' W 126°39'0 0.0 16.2
2016-May-05 19:00N 34°07' W 126°39'0 0.2 16.2
2016-May-05 17:00N 34°07' W 126°40'0 0.0 16.2
2016-May-05 16:00N 34°07' W 126°40'0 0.5 16.2
2016-May-05 15:00N 34°07' W 126°39'0 0.0 16.3
2016-May-05 14:00N 34°07' W 126°39'0 0.1 16.4
2016-May-05 13:00N 34°07' W 126°39'3 0.3 16.4
2016-May-05 04:00N 34°07' W 126°36'0 0.5 16.4
2016-May-05 03:00N 34°08' W 126°35'0 0.0 16.3
2016-May-05 01:00N 34°08' W 126°35'3 2.8 16.3
2016-May-05 00:00N 34°09' W 126°33'0 0.0 16.3
2016-May-04 22:00N 34°09' W 126°33'1 0.1 16.3
2016-May-04 17:00N 34°09' W 126°33'0 0.0 16.2
2016-May-04 16:00N 34°09' W 126°33'0 0.4 16.2
2016-May-04 15:00N 34°09' W 126°34'0 0.3 16.2
2016-May-04 14:00N 34°09' W 126°34'0 0.0 16.2
2016-May-04 13:00N 34°09' W 126°34'0 0.2 16.2
2016-May-04 11:00N 34°09' W 126°34'0 0.0 16.2
2016-May-04 10:00N 34°09' W 126°34'1 0.3 16.2
2016-May-04 06:00N 34°09' W 126°33'1 0.7 16.3
2016-May-04 05:00N 34°10' W 126°32'0 0.4 16.4
2016-May-04 04:00N 34°10' W 126°32'0 0.0 16.6
2016-May-04 03:00N 34°10' W 126°32'0 0.3 17.0
2016-May-04 02:00N 34°10' W 126°32'0 0.1 17.1
2016-May-04 01:00N 34°10' W 126°32'1 0.6 17.4
2016-May-04 00:00N 34°11' W 126°32'0 0.0 18.0
2016-May-03 23:00N 34°11' W 126°32'0 0.2 17.9
2016-May-03 21:00N 34°11' W 126°32'0 0.1 18.0
2016-May-03 18:00N 34°11' W 126°33'0 0.1 16.5
2016-May-03 17:00N 34°11' W 126°33'0 0.0 16.3
2016-May-03 14:00N 34°11' W 126°33'0 0.0 16.4
2016-May-03 13:00N 34°11' W 126°33'0 0.1 16.4
2016-May-03 10:00N 34°11' W 126°32'1 0.1 16.1
2016-May-03 04:00N 34°11' W 126°31'0 0.0 16.6
2016-May-03 03:00N 34°11' W 126°31'0 0.2 17.1
2016-May-03 02:00N 34°11' W 126°31'0 0.2 17.0
2016-May-03 00:00N 34°11' W 126°31'0 0.3 17.8
2016-May-02 23:00N 34°12' W 126°31'0 0.5 17.8
2016-May-02 22:00N 34°12' W 126°32'0 0.2 18.0
2016-May-02 21:00N 34°12' W 126°32'1 0.3 17.2
2016-May-02 19:00N 34°12' W 126°33'0 0.0 16.3
2016-May-02 18:00N 34°12' W 126°33'0 0.3 16.1
2016-May-02 17:00N 34°12' W 126°33'0 0.1 16.0
2016-May-02 16:00N 34°12' W 126°33'0 0.1 16.0
2016-May-02 14:00N 34°12' W 126°33'0 0.1 15.9
2016-May-02 13:00N 34°12' W 126°33'1 0.2 15.9
2016-May-02 06:00N 34°11' W 126°31'1 0.5 15.9
2016-May-02 05:00N 34°12' W 126°31'0 0.0 15.9
2016-May-02 03:00N 34°12' W 126°31'1 0.6 16.0
2016-May-02 02:00N 34°12' W 126°31'0 0.2 16.0
2016-May-02 01:00N 34°12' W 126°31'0 0.1 16.0
2016-May-01 21:00N 34°13' W 126°31'1 0.1 15.9
2016-May-01 16:00N 34°13' W 126°30'0 0.2 15.8
2016-May-01 14:00N 34°12' W 126°30'1 1.1 15.8
2016-May-01 13:00N 34°13' W 126°29'0 0.0 15.8
2016-May-01 11:00N 34°13' W 126°29'1 0.3 15.8
2016-May-01 07:00N 34°14' W 126°28'0 0.0 15.6
2016-May-01 06:00N 34°14' W 126°28'1 0.3 15.5
2016-May-01 04:00N 34°15' W 126°28'1 0.5 15.5
2016-May-01 03:00N 34°15' W 126°28'0 0.3 15.4
2016-May-01 02:00N 34°15' W 126°28'0 0.0 15.4
2016-May-01 01:00N 34°15' W 126°28'0 0.5 15.4
2016-May-01 00:00N 34°15' W 126°27'0 0.2 15.4
2016-Apr-30 23:00N 34°15' W 126°28'2 2.5 15.4
2016-Apr-30 22:00N 34°17' W 126°25'0 0.0 15.4
2016-Apr-30 19:00N 34°17' W 126°25'0 0.0 15.3
2016-Apr-30 18:00N 34°17' W 126°25'1 0.5 15.3
2016-Apr-30 17:00N 34°17' W 126°25'0 0.0 15.3
2016-Apr-30 16:00N 34°17' W 126°25'1 0.5 15.3
2016-Apr-30 14:00N 34°18' W 126°24'0 0.3 15.3
2016-Apr-30 13:00N 34°18' W 126°24'0 0.0 15.3
2016-Apr-30 12:00N 34°18' W 126°24'2 0.3 15.3
2016-Apr-30 04:00N 34°20' W 126°25'2 0.8 15.2
2016-Apr-30 02:00N 34°21' W 126°23'0 0.2 15.2
2016-Apr-30 01:00N 34°21' W 126°23'1 0.5 15.2
2016-Apr-30 00:00N 34°21' W 126°22'1 0.5 15.1
2016-Apr-29 23:00N 34°21' W 126°22'1 0.4 15.1
2016-Apr-29 19:00N 34°22' W 126°21'0 0.0 15.1
2016-Apr-29 18:00N 34°22' W 126°21'1 0.3 15.1
2016-Apr-29 15:00N 34°23' W 126°21'1 0.8 15.0
2016-Apr-29 14:00N 34°23' W 126°21'1 0.5 15.0
2016-Apr-29 13:00N 34°24' W 126°20'0 0.0 15.0
2016-Apr-29 12:00N 34°24' W 126°20'2 1.7 15.0
2016-Apr-29 11:00N 34°25' W 126°20'0 0.0 15.0
2016-Apr-29 06:00N 34°25' W 126°20'0 0.1 15.1
2016-Apr-29 05:00N 34°26' W 126°20'0 0.4 15.1
2016-Apr-29 04:00N 34°26' W 126°20'0 0.3 15.1
2016-Apr-29 03:00N 34°26' W 126°19'0 0.2 15.2
2016-Apr-29 01:00N 34°26' W 126°19'1 0.6 15.2
2016-Apr-28 23:00N 34°27' W 126°18'0 0.0 15.2
2016-Apr-28 22:00N 34°27' W 126°18'4 0.7 15.2
2016-Apr-28 17:00N 34°30' W 126°17'1 0.4 15.2
2016-Apr-28 15:00N 34°31' W 126°17'0 0.0 15.2
2016-Apr-28 14:00N 34°31' W 126°17'3 0.3 15.2
2016-Apr-28 04:00N 34°33' W 126°15'1 0.6 15.3
2016-Apr-28 02:00N 34°34' W 126°14'2 0.8 15.3
2016-Apr-27 23:00N 34°36' W 126°12'4 0.9 15.3
2016-Apr-27 19:00N 34°40' W 126°12'1 0.5 15.3
2016-Apr-27 16:00N 34°41' W 126°13'1 0.7 15.2
2016-Apr-27 15:00N 34°42' W 126°13'0 0.0 15.2
2016-Apr-27 14:00N 34°42' W 126°13'5 0.6 15.1
2016-Apr-27 06:00N 34°46' W 126°11'0 0.0 15.1
2016-Apr-27 05:00N 34°46' W 126°11'1 0.8 15.1
2016-Apr-27 04:00N 34°47' W 126°10'1 1.4 15.1
2016-Apr-27 03:00N 34°48' W 126°11'4 2.0 15.1
2016-Apr-27 01:00N 34°52' W 126°11'0 0.0 15.1
2016-Apr-27 00:00N 34°52' W 126°11'0 0.0 15.1
2016-Apr-26 23:00N 34°52' W 126°11'0 0.2 15.1
2016-Apr-26 22:00N 34°52' W 126°11'4 0.8 15.1
2016-Apr-26 17:00N 34°56' W 126°11'1 0.4 15.2
2016-Apr-26 15:00N 34°57' W 126°11'   15.4

Dump ship's entire track history